TimeCDT,TemperatureF,Dew PointF,Humidity,Sea Level PressureIn,VisibilityMPH,Wind Direction,Wind SpeedMPH,Gust SpeedMPH,PrecipitationIn,Events,Conditions,WindDirDegrees,DateUTC
12:13 AM,69.8,66.2,88,29.88,10.0,South,10.4,-,N/A,,Clear,180,2013-08-18 05:13:00
12:33 AM,69.8,66.2,88,29.88,10.0,South,10.4,17.3,N/A,,Clear,180,2013-08-18 05:33:00
12:53 AM,69.8,66.2,88,29.88,10.0,South,10.4,-,N/A,,Clear,170,2013-08-18 05:53:00
1:13 AM,69.8,66.2,88,29.88,10.0,South,10.4,-,N/A,,Clear,170,2013-08-18 06:13:00
1:33 AM,69.8,66.2,88,29.88,10.0,South,10.4,-,N/A,,Clear,170,2013-08-18 06:33:00
1:54 AM,69.8,66.2,88,29.88,10.0,South,10.4,17.3,N/A,,Clear,170,2013-08-18 06:54:00
2:13 AM,69.8,66.2,88,29.87,10.0,South,11.5,17.3,N/A,,Clear,180,2013-08-18 07:13:00
2:33 AM,69.8,66.2,88,29.88,10.0,South,9.2,-,N/A,,Clear,170,2013-08-18 07:33:00
2:52 AM,69.8,66.2,88,29.88,10.0,South,10.4,-,N/A,,Clear,180,2013-08-18 07:52:00
3:13 AM,69.8,66.2,88,29.88,10.0,South,11.5,-,N/A,,Clear,170,2013-08-18 08:13:00
3:33 AM,69.8,66.2,88,29.87,10.0,South,9.2,-,N/A,,Clear,170,2013-08-18 08:33:00
3:53 AM,69.8,66.2,88,29.87,10.0,South,10.4,-,N/A,,Clear,170,2013-08-18 08:53:00
4:13 AM,69.8,66.2,88,29.87,10.0,South,9.2,-,N/A,,Clear,180,2013-08-18 09:13:00
4:33 AM,69.8,66.2,88,29.87,10.0,South,11.5,-,N/A,,Clear,180,2013-08-18 09:33:00
4:53 AM,69.8,66.2,88,29.87,10.0,South,8.1,-,N/A,,Clear,180,2013-08-18 09:53:00
5:13 AM,68.0,66.2,94,29.87,10.0,SSE,9.2,-,N/A,,Clear,160,2013-08-18 10:13:00
5:33 AM,68.0,66.2,94,29.86,10.0,SSE,11.5,-,N/A,,Clear,160,2013-08-18 10:33:00
5:53 AM,68.0,66.2,94,29.86,10.0,SSE,11.5,-,N/A,,Clear,160,2013-08-18 10:53:00
6:13 AM,66.2,66.2,100,29.86,10.0,SSE,11.5,-,N/A,,Clear,160,2013-08-18 11:13:00
6:33 AM,66.2,64.4,94,29.86,10.0,SSE,12.7,-,N/A,,Clear,160,2013-08-18 11:33:00
6:53 AM,66.2,64.4,94,29.86,10.0,South,13.8,-,N/A,,Clear,170,2013-08-18 11:53:00
7:13 AM,66.2,64.4,94,29.86,10.0,SSE,11.5,18.4,N/A,,Clear,160,2013-08-18 12:13:00
7:33 AM,66.2,64.4,94,29.86,10.0,South,11.5,17.3,N/A,,Clear,170,2013-08-18 12:33:00
7:53 AM,66.2,64.4,94,29.86,10.0,South,13.8,18.4,N/A,,Clear,170,2013-08-18 12:53:00
8:13 AM,68.0,66.2,94,29.86,10.0,South,11.5,19.6,N/A,,Clear,170,2013-08-18 13:13:00
8:33 AM,69.8,66.2,88,29.86,10.0,South,15.0,18.4,N/A,,Clear,170,2013-08-18 13:33:00
8:53 AM,69.8,66.2,88,29.85,10.0,South,12.7,20.7,N/A,,Clear,170,2013-08-18 13:53:00
9:13 AM,71.6,66.2,83,29.84,10.0,South,15.0,20.7,N/A,,Clear,170,2013-08-18 14:13:00
9:33 AM,71.6,66.2,83,29.83,10.0,South,16.1,21.9,N/A,,Clear,180,2013-08-18 14:33:00
9:53 AM,71.6,66.2,83,29.80,10.0,South,21.9,25.3,N/A,,Clear,180,2013-08-18 14:53:00
10:13 AM,73.4,66.2,78,29.80,10.0,South,16.1,28.8,N/A,,Clear,180,2013-08-18 15:13:00
10:33 AM,73.4,66.2,78,29.83,10.0,South,15.0,21.9,N/A,,Scattered Clouds,180,2013-08-18 15:33:00
10:53 AM,75.2,68.0,78,29.83,10.0,South,13.8,23.0,N/A,,Scattered Clouds,190,2013-08-18 15:53:00
11:13 AM,73.4,68.0,83,29.83,10.0,South,12.7,-,N/A,,Mostly Cloudy,180,2013-08-18 16:13:00
11:33 AM,73.4,68.0,83,29.85,10.0,SSW,9.2,-,N/A,,Overcast,200,2013-08-18 16:33:00
11:53 AM,73.4,68.0,83,29.86,10.0,South,8.1,-,N/A,,Overcast,190,2013-08-18 16:53:00
12:14 PM,73.4,68.0,83,29.86,10.0,SSE,6.9,-,N/A,,Overcast,160,2013-08-18 17:14:00
12:33 PM,73.4,69.8,88,29.85,10.0,SSE,6.9,-,N/A,,Overcast,160,2013-08-18 17:33:00
12:53 PM,73.4,69.8,88,29.84,10.0,SSE,5.8,-,N/A,,Overcast,150,2013-08-18 17:53:00
1:14 PM,75.2,69.8,83,29.84,10.0,SSE,5.8,-,N/A,,Overcast,160,2013-08-18 18:14:00
1:33 PM,75.2,69.8,83,29.85,10.0,South,3.5,-,N/A,,Overcast,170,2013-08-18 18:33:00
1:53 PM,75.2,69.8,83,29.85,10.0,SSE,3.5,-,N/A,,Overcast,160,2013-08-18 18:53:00
2:14 PM,75.2,71.6,89,29.84,10.0,Calm,Calm,-,N/A,,Overcast,0,2013-08-18 19:14:00
2:33 PM,75.2,69.8,83,29.84,10.0,NE,4.6,-,N/A,Thunderstorm,Thunderstorm,50,2013-08-18 19:33:00
2:53 PM,71.6,68.0,88,29.84,10.0,East,6.9,-,N/A,,Overcast,90,2013-08-18 19:53:00
3:13 PM,71.6,66.2,83,29.84,10.0,ENE,12.7,16.1,N/A,,Overcast,70,2013-08-18 20:13:00
3:33 PM,73.4,68.0,83,29.82,10.0,ESE,12.7,-,N/A,,Scattered Clouds,110,2013-08-18 20:33:00
3:53 PM,75.2,69.8,83,29.81,10.0,ESE,8.1,-,N/A,,Clear,120,2013-08-18 20:53:00
4:13 PM,78.8,71.6,78,29.81,10.0,ESE,3.5,-,N/A,,Clear,110,2013-08-18 21:13:00
4:34 PM,80.6,71.6,74,29.80,10.0,East,3.5,-,N/A,,Clear,80,2013-08-18 21:34:00
4:53 PM,80.6,71.6,74,29.80,10.0,East,3.5,-,N/A,,Clear,80,2013-08-18 21:53:00
5:13 PM,82.4,71.6,70,29.80,10.0,Calm,Calm,-,N/A,,Clear,0,2013-08-18 22:13:00
5:33 PM,82.4,71.6,70,29.81,10.0,NNW,3.5,-,N/A,,Clear,330,2013-08-18 22:33:00
5:53 PM,82.4,71.6,70,29.81,10.0,North,5.8,-,N/A,,Scattered Clouds,360,2013-08-18 22:53:00
6:13 PM,82.4,73.4,74,29.81,10.0,North,9.2,-,N/A,,Scattered Clouds,360,2013-08-18 23:13:00
6:33 PM,80.6,71.6,74,29.81,10.0,North,8.1,-,N/A,,Scattered Clouds,360,2013-08-18 23:33:00
6:53 PM,80.6,71.6,74,29.82,10.0,North,9.2,-,N/A,,Clear,360,2013-08-18 23:53:00
7:13 PM,78.8,71.6,78,29.81,10.0,North,10.4,-,N/A,Thunderstorm,Clear,360,2013-08-19 00:13:00
7:33 PM,78.8,71.6,78,29.81,10.0,North,8.1,-,N/A,,Clear,10,2013-08-19 00:33:00
7:53 PM,75.2,71.6,89,29.83,10.0,NNE,5.8,-,N/A,,Clear,20,2013-08-19 00:53:00
8:13 PM,75.2,71.6,89,29.83,10.0,NE,4.6,-,N/A,Thunderstorm,Clear,50,2013-08-19 01:13:00
8:33 PM,73.4,71.6,94,29.83,10.0,NE,3.5,-,N/A,,Clear,50,2013-08-19 01:33:00
8:53 PM,73.4,71.6,94,29.83,10.0,ENE,3.5,-,N/A,,Clear,60,2013-08-19 01:53:00
9:13 PM,71.6,69.8,94,29.83,10.0,Calm,Calm,-,N/A,,Clear,0,2013-08-19 02:13:00
9:33 PM,71.6,69.8,94,29.84,10.0,East,3.5,-,N/A,Rain,Light Rain,80,2013-08-19 02:33:00
9:53 PM,71.6,71.6,100,29.83,10.0,East,4.6,-,N/A,,Clear,100,2013-08-19 02:53:00
10:13 PM,73.4,71.6,94,29.82,10.0,SE,3.5,-,N/A,,Clear,130,2013-08-19 03:13:00
10:33 PM,71.6,69.8,94,29.83,10.0,SE,5.8,-,N/A,,Clear,140,2013-08-19 03:33:00
10:53 PM,71.6,69.8,94,29.83,10.0,SSE,6.9,-,N/A,,Clear,150,2013-08-19 03:53:00
11:13 PM,69.8,68.0,94,29.83,7.0,SSE,5.8,-,N/A,,Clear,160,2013-08-19 04:13:00
11:33 PM,68.0,66.2,94,29.83,7.0,Calm,Calm,-,N/A,,Clear,0,2013-08-19 04:33:00
11:53 PM,66.2,66.2,100,29.84,7.0,Calm,Calm,-,N/A,,Clear,0,2013-08-19 04:53:00